createdAt,value
2018-12-03T00:01:31.859Z,97090.04
2018-12-03T00:06:34.179Z,97098.19
2018-12-03T00:11:37.048Z,97095.66
2018-12-03T00:16:39.426Z,97094.59
2018-12-03T00:21:41.778Z,97099.42
2018-12-03T00:26:44.061Z,97097.73
2018-12-03T00:31:46.361Z,97094.39
2018-12-03T00:36:48.874Z,97085.00
2018-12-03T00:41:51.175Z,97079.00
2018-12-03T00:46:53.463Z,97072.58
2018-12-03T00:51:55.780Z,97080.66
2018-12-03T00:56:58.100Z,97077.64
2018-12-03T01:02:00.407Z,97083.50
2018-12-03T01:07:02.717Z,97079.45
2018-12-03T01:12:05.028Z,97075.84
2018-12-03T01:17:07.318Z,97080.64
2018-12-03T01:22:09.651Z,97079.00
2018-12-03T01:27:11.939Z,97082.66
2018-12-03T01:32:14.249Z,97082.22
2018-12-03T01:37:16.533Z,97084.80
2018-12-03T01:42:18.822Z,97089.91
2018-12-03T01:47:21.207Z,97073.16
2018-12-03T01:52:23.627Z,97067.67
2018-12-03T01:57:25.959Z,97067.98
2018-12-03T02:02:28.311Z,97073.03
2018-12-03T02:07:30.624Z,97063.66
2018-12-03T02:12:33.016Z,97063.53
2018-12-03T02:17:35.362Z,97070.26
2018-12-03T02:22:37.705Z,97069.39
2018-12-03T02:27:40.051Z,97062.11
2018-12-03T02:32:42.672Z,97057.30
2018-12-03T02:37:45.007Z,97052.22
2018-12-03T02:42:47.300Z,97054.91
2018-12-03T02:47:49.592Z,97060.58
2018-12-03T02:52:51.954Z,97054.25
2018-12-03T02:57:54.356Z,97053.05
2018-12-03T03:02:56.642Z,97050.89
2018-12-03T03:07:59.029Z,97061.50
2018-12-03T03:13:01.328Z,97065.97
2018-12-03T03:18:03.668Z,97068.00
2018-12-03T03:23:06.256Z,97074.05
2018-12-03T03:28:08.539Z,97076.64
2018-12-03T03:33:10.835Z,97078.50
2018-12-03T03:38:13.128Z,97080.80
2018-12-03T03:43:15.666Z,97075.61
2018-12-03T03:48:18.118Z,97070.31
2018-12-03T03:53:20.450Z,97057.34
2018-12-03T03:58:22.816Z,97059.67
2018-12-03T04:03:25.100Z,97053.77
2018-12-03T04:08:27.387Z,97048.97
2018-12-03T04:13:29.664Z,97049.05
2018-12-03T04:18:32.053Z,97042.72
2018-12-03T04:23:37.847Z,97032.59
2018-12-03T04:28:40.198Z,97023.91
2018-12-03T04:33:42.486Z,97027.00
2018-12-03T04:38:44.773Z,97021.92
2018-12-03T04:43:47.048Z,97024.81
2018-12-03T04:48:49.346Z,97018.05
2018-12-03T04:53:51.739Z,97022.00
2018-12-03T04:58:54.057Z,97023.00
2018-12-03T05:03:56.443Z,97032.56
2018-12-03T05:08:58.804Z,97035.28
2018-12-03T05:14:01.093Z,97051.15
2018-12-03T05:19:03.417Z,97065.09
2018-12-03T05:24:07.546Z,97058.48
2018-12-03T05:29:09.835Z,97067.31
2018-12-03T05:34:12.150Z,97065.84
2018-12-03T05:39:14.461Z,97069.45
2018-12-03T05:44:16.749Z,97067.99
2018-12-03T05:49:19.056Z,97078.30
2018-12-03T05:54:21.425Z,97071.33
2018-12-03T05:59:23.716Z,97073.80
2018-12-03T06:04:26.018Z,97082.12
2018-12-03T06:09:28.352Z,97082.17
2018-12-03T06:14:30.759Z,97082.48
2018-12-03T06:19:33.183Z,97092.69
2018-12-03T06:24:35.601Z,97088.73
2018-12-03T06:29:37.892Z,97090.05
2018-12-03T06:34:40.181Z,97094.26
2018-12-03T06:39:42.504Z,97093.94
2018-12-03T06:44:44.877Z,97096.77
2018-12-03T06:49:47.190Z,97089.77
2018-12-03T06:54:49.554Z,97088.63
2018-12-03T06:59:51.909Z,97092.02
2018-12-03T07:04:54.209Z,97093.61
2018-12-03T07:09:56.498Z,97104.20
2018-12-03T07:14:59.369Z,97102.81
2018-12-03T07:20:01.673Z,97108.91
2018-12-03T07:25:04.227Z,97107.72
2018-12-03T07:30:15.599Z,97109.31
2018-12-03T07:35:18.649Z,97104.71
2018-12-03T07:40:55.790Z,97106.60
2018-12-03T07:45:58.036Z,97096.72
2018-12-03T07:51:00.257Z,97090.35
2018-12-03T07:56:05.293Z,97094.45
2018-12-03T08:01:07.643Z,97094.27
2018-12-03T08:06:09.874Z,97093.27
2018-12-03T08:11:12.154Z,97103.08
2018-12-03T08:16:14.410Z,97100.23
2018-12-03T08:21:16.657Z,97100.03
2018-12-03T08:26:18.957Z,97104.93
2018-12-03T08:31:21.348Z,97122.70
2018-12-03T08:36:23.602Z,97111.59
2018-12-03T08:41:25.941Z,97113.59
2018-12-03T08:46:28.320Z,97126.84
2018-12-03T08:51:30.566Z,97123.62
2018-12-03T08:56:32.841Z,97126.17
2018-12-03T09:01:35.121Z,97139.83
2018-12-03T09:06:37.381Z,97146.55
2018-12-03T09:11:47.193Z,97138.21
2018-12-03T09:16:49.510Z,97150.28
2018-12-03T09:21:51.770Z,97147.21
2018-12-03T09:26:54.064Z,97140.69
2018-12-03T09:31:56.321Z,97155.32
2018-12-03T09:36:58.620Z,97159.09
2018-12-03T09:42:00.915Z,97167.17
2018-12-03T09:47:03.277Z,97176.89
2018-12-03T09:52:06.168Z,97177.28
2018-12-03T09:57:08.555Z,97158.51
2018-12-03T10:02:10.863Z,97156.79
2018-12-03T10:07:18.381Z,97137.84
2018-12-03T10:12:20.931Z,97140.35
2018-12-03T10:17:23.220Z,97133.17
2018-12-03T10:22:25.501Z,97136.30
2018-12-03T10:27:28.191Z,97127.02
2018-12-03T10:32:30.524Z,97128.34
2018-12-03T10:37:32.792Z,97128.02
2018-12-03T10:42:35.084Z,97124.36
2018-12-03T10:47:37.435Z,97127.83
2018-12-03T10:52:40.090Z,97127.31
2018-12-03T10:57:43.892Z,97112.42
2018-12-03T11:02:54.137Z,97114.38
2018-12-03T11:07:56.652Z,97117.03
2018-12-03T11:12:59.088Z,97107.41
2018-12-03T11:18:02.584Z,97113.75
2018-12-03T11:23:05.867Z,97112.50
2018-12-03T11:28:12.095Z,97104.34
2018-12-03T11:33:21.648Z,97098.81
2018-12-03T11:38:30.751Z,97090.75
2018-12-03T11:43:33.045Z,97078.25
2018-12-03T11:48:35.588Z,97077.48
2018-12-03T11:53:37.856Z,97089.78
2018-12-03T11:58:40.297Z,97084.02
2018-12-03T12:03:44.395Z,97105.77
2018-12-03T12:08:46.668Z,97106.89
2018-12-03T12:13:48.995Z,97107.11
2018-12-03T12:18:51.504Z,97107.86
2018-12-03T12:23:53.966Z,97092.51
2018-12-03T12:28:56.299Z,97086.20
2018-12-03T12:33:58.586Z,97067.77
2018-12-03T12:39:00.888Z,97058.92
2018-12-03T12:44:03.621Z,97064.13
2018-12-03T12:49:07.348Z,97063.12
2018-12-03T12:54:09.629Z,97063.69
2018-12-03T12:59:12.090Z,97055.12
2018-12-03T13:04:14.880Z,97072.23
2018-12-03T13:09:17.159Z,97069.48
2018-12-03T13:14:19.508Z,97065.70
2018-12-03T13:19:21.767Z,97077.13
2018-12-03T13:24:24.031Z,97072.39
2018-12-03T13:29:26.352Z,97076.66
2018-12-03T13:34:34.294Z,97069.49
2018-12-03T13:39:32.912Z,97063.33
2018-12-03T13:44:35.166Z,97064.80
2018-12-03T13:49:40.397Z,97068.41
2018-12-03T13:54:42.677Z,97055.92
2018-12-03T13:59:45.181Z,97060.00
2018-12-03T14:04:47.705Z,97059.43
2018-12-03T14:10:05.269Z,97056.38
2018-12-03T14:17:23.492Z,97076.44
2018-12-03T14:22:29.516Z,97068.63
2018-12-03T14:27:32.010Z,97069.38
2018-12-03T14:32:34.323Z,97079.32
2018-12-03T14:37:36.714Z,97074.93
2018-12-03T14:42:39.030Z,97070.76
2018-12-03T14:47:41.422Z,97083.61
2018-12-03T14:52:43.691Z,97076.63
2018-12-03T14:57:45.976Z,97071.70
2018-12-03T15:02:48.293Z,97071.22
2018-12-03T15:07:50.588Z,97066.03
2018-12-03T15:12:52.950Z,97059.55
2018-12-03T15:17:56.321Z,97073.14
2018-12-03T15:22:58.557Z,97066.66
2018-12-03T15:28:00.842Z,97068.59
2018-12-03T15:33:03.393Z,97063.41
2018-12-03T15:38:05.652Z,97068.82
2018-12-03T15:43:08.106Z,97066.04
2018-12-03T15:48:10.359Z,97063.64
2018-12-03T15:53:12.652Z,97063.12
2018-12-03T15:58:16.390Z,97062.05
2018-12-03T16:03:18.959Z,97069.74
2018-12-03T16:08:21.212Z,97066.80
2018-12-03T16:13:24.557Z,97067.91
2018-12-03T16:18:26.799Z,97081.84
2018-12-03T16:23:29.101Z,97087.78
2018-12-03T16:28:31.452Z,97084.01
2018-12-03T16:33:34.044Z,97076.95
2018-12-03T16:38:36.417Z,97081.55
2018-12-03T16:43:38.681Z,97085.57
2018-12-03T16:48:41.564Z,97084.48
2018-12-03T16:53:43.818Z,97093.77
2018-12-03T16:58:46.065Z,97095.36
2018-12-03T17:03:48.355Z,97089.98
2018-12-03T17:08:50.643Z,97083.95
2018-12-03T17:13:53.033Z,97080.20
2018-12-03T17:18:55.372Z,97073.77
2018-12-03T17:24:23.845Z,97066.98
2018-12-03T17:29:26.173Z,97062.51
2018-12-03T17:34:28.480Z,97062.00
2018-12-03T17:39:30.760Z,97056.78
2018-12-03T17:44:35.131Z,97052.43
2018-12-03T17:49:37.412Z,97049.19
2018-12-03T17:54:39.705Z,97055.55
2018-12-03T17:59:41.971Z,97062.91
2018-12-03T18:04:44.269Z,97059.22
2018-12-03T18:09:47.685Z,97052.67
2018-12-03T18:14:50.078Z,97055.25
2018-12-03T18:19:52.667Z,97057.53
2018-12-03T18:24:54.936Z,97051.28
2018-12-03T18:29:57.195Z,97049.92
2018-12-03T18:34:59.628Z,97054.41
2018-12-03T18:40:03.021Z,97033.96
2018-12-03T18:45:06.584Z,97033.39
2018-12-03T18:50:13.174Z,97028.11
2018-12-03T18:55:15.533Z,97032.64
2018-12-03T19:00:18.978Z,97038.22
2018-12-03T19:05:21.713Z,97050.39
2018-12-03T19:10:25.029Z,97035.66
2018-12-03T19:15:27.297Z,97048.88
2018-12-03T19:20:30.041Z,97050.31
2018-12-03T19:25:32.283Z,97045.97
2018-12-03T19:30:34.610Z,97040.87
2018-12-03T19:35:40.531Z,97036.04
2018-12-03T19:40:44.994Z,97042.27
2018-12-03T19:45:48.145Z,97039.81
2018-12-03T19:50:50.423Z,97035.09
2018-12-03T19:55:53.250Z,97023.45
2018-12-03T20:00:55.661Z,97025.77
2018-12-03T20:05:57.967Z,97020.86
2018-12-03T20:11:00.948Z,97038.61
2018-12-03T20:16:03.766Z,97038.36
2018-12-03T20:21:11.148Z,97053.14
2018-12-03T20:26:19.852Z,97049.38
2018-12-03T20:31:33.355Z,97032.83
2018-12-03T20:37:19.628Z,97041.25
2018-12-03T20:42:24.561Z,97040.11
2018-12-03T20:47:30.230Z,97033.96
2018-12-03T20:52:32.469Z,97041.05
2018-12-03T20:57:34.722Z,97041.41
2018-12-03T21:02:37.022Z,97050.20
2018-12-03T21:07:39.442Z,97064.44
2018-12-03T21:12:41.710Z,97077.47
2018-12-03T21:17:43.989Z,97073.95
2018-12-03T21:22:46.369Z,97076.77
2018-12-03T21:27:48.739Z,97085.54
2018-12-03T21:32:52.126Z,97090.13
2018-12-03T21:37:55.287Z,97093.34
2018-12-03T21:42:57.535Z,97101.88
2018-12-03T21:47:59.781Z,97096.77
2018-12-03T21:53:02.028Z,97109.29
2018-12-03T21:58:04.395Z,97114.81
2018-12-03T22:03:06.673Z,97113.37
2018-12-03T22:08:09.206Z,97115.14
2018-12-03T22:13:11.450Z,97116.14
2018-12-03T22:18:13.677Z,97114.39
2018-12-03T22:23:15.905Z,97115.20
2018-12-03T22:28:18.139Z,97122.05
2018-12-03T22:33:20.381Z,97129.98
2018-12-03T22:38:22.666Z,97131.81
2018-12-03T22:43:25.061Z,97141.33
2018-12-03T22:48:27.337Z,97129.50
2018-12-03T22:53:29.550Z,97132.45
2018-12-03T22:58:31.822Z,97147.19
2018-12-03T23:03:34.088Z,97160.80
2018-12-03T23:08:36.679Z,97174.97
2018-12-03T23:13:39.122Z,97188.91
2018-12-03T23:18:41.352Z,97189.69
2018-12-03T23:23:43.677Z,97194.00
2018-12-03T23:28:46.050Z,97202.67
2018-12-03T23:33:48.286Z,97207.52
2018-12-03T23:38:50.734Z,97206.77
2018-12-03T23:43:52.973Z,97213.88
2018-12-03T23:48:55.325Z,97213.88
2018-12-03T23:53:57.560Z,97225.72
2018-12-03T23:58:59.830Z,97234.09
